Time;durP1;ratioP1;P1;durP2;ratioP2;P2;SDS_P1;SDS_P2;PMS_P1;PMS_P2;Temp;Humidity;BMP_temperature;BMP_pressure;BME280_temperature;BME280_humidity;BME280_pressure;Samples;Min_cycle;Max_cycle;Signal;HPM_P1;HPM_P2
2022/02/27 00:00:16;;;;;;;1.67;1.50;;;2.10;98.20;;;;;;5005611;28;21206;-72
2022/02/27 00:02:44;;;;;;;1.63;1.40;;;2.10;98.20;;;;;;5009447;28;20489;-73
2022/02/27 00:05:11;;;;;;;1.70;1.60;;;2.10;98.20;;;;;;5004869;28;20487;-73
2022/02/27 00:07:39;;;;;;;1.63;1.40;;;2.10;98.20;;;;;;5003759;28;20472;-72
2022/02/27 00:10:08;;;;;;;1.70;1.57;;;2.10;98.20;;;;;;5005303;28;20471;-73
2022/02/27 00:12:36;;;;;;;1.60;1.47;;;2.10;98.20;;;;;;5004966;28;20631;-72
2022/02/27 00:15:04;;;;;;;1.70;1.60;;;2.10;98.20;;;;;;5004807;28;20487;-72
2022/02/27 00:17:31;;;;;;;1.70;1.60;;;2.10;98.20;;;;;;5003897;28;20554;-72
2022/02/27 00:19:57;;;;;;;1.60;1.40;;;2.00;98.20;;;;;;5004758;28;20464;-72
2022/02/27 00:22:24;;;;;;;1.60;1.40;;;2.00;98.20;;;;;;5007515;28;20541;-73
2022/02/27 00:24:52;;;;;;;1.63;1.50;;;1.90;98.20;;;;;;5005963;28;20719;-73
2022/02/27 00:27:19;;;;;;;1.67;1.50;;;1.90;98.20;;;;;;5003701;28;20464;-73
2022/02/27 00:29:46;;;;;;;1.70;1.50;;;1.90;98.20;;;;;;5004411;28;20927;-73
2022/02/27 00:32:13;;;;;;;1.63;1.40;;;1.90;98.20;;;;;;5005356;28;20460;-73
2022/02/27 00:34:41;;;;;;;1.63;1.50;;;1.80;98.20;;;;;;5005508;28;20483;-73
2022/02/27 00:37:08;;;;;;;1.70;1.50;;;1.80;98.20;;;;;;5003491;28;20460;-73
2022/02/27 00:39:34;;;;;;;1.60;1.40;;;1.80;98.20;;;;;;5004658;28;20821;-73
2022/02/27 00:42:03;;;;;;;3.60;3.40;;;1.80;98.20;;;;;;5005183;28;20798;-73
2022/02/27 00:44:30;;;;;;;1.67;1.50;;;1.80;98.20;;;;;;5004976;28;20488;-72
2022/02/27 00:46:57;;;;;;;1.70;1.60;;;1.80;98.20;;;;;;5005009;28;20476;-73
2022/02/27 00:49:24;;;;;;;1.63;1.50;;;1.70;98.20;;;;;;5004563;28;21247;-73
2022/02/27 00:51:50;;;;;;;1.67;1.50;;;1.70;98.20;;;;;;4999333;28;20501;-73
2022/02/27 00:54:17;;;;;;;1.70;1.50;;;1.70;98.20;;;;;;5009509;28;20456;-72
2022/02/27 00:56:44;;;;;;;1.70;1.50;;;1.70;98.20;;;;;;5004343;28;20472;-73
2022/02/27 00:59:12;;;;;;;1.63;1.50;;;1.70;98.20;;;;;;5005091;28;20479;-72
2022/02/27 01:01:39;;;;;;;1.67;1.50;;;1.60;98.20;;;;;;4997479;28;20706;-72
2022/02/27 01:04:06;;;;;;;1.63;1.50;;;1.60;98.20;;;;;;5006939;28;20495;-72
2022/02/27 01:06:33;;;;;;;1.63;1.50;;;1.60;98.20;;;;;;5004362;28;20464;-72
2022/02/27 01:09:00;;;;;;;1.67;1.50;;;1.60;98.20;;;;;;5004575;28;20474;-72
2022/02/27 01:11:29;;;;;;;1.63;1.40;;;1.60;98.20;;;;;;5003282;28;20468;-73
2022/02/27 01:13:56;;;;;;;1.67;1.50;;;1.60;98.20;;;;;;5004665;28;20931;-72
2022/02/27 01:16:25;;;;;;;3.80;3.53;;;1.70;98.20;;;;;;5004862;28;20487;-73
2022/02/27 01:18:52;;;;;;;1.63;1.50;;;1.70;98.20;;;;;;5005206;28;20472;-72
2022/02/27 01:21:19;;;;;;;1.80;1.70;;;1.70;98.20;;;;;;5002445;28;20471;-72
2022/02/27 01:23:47;;;;;;;1.80;1.70;;;1.70;98.20;;;;;;5003488;28;20492;-72
2022/02/27 01:26:14;;;;;;;1.60;1.50;;;1.70;98.20;;;;;;5003673;28;21113;-71
2022/02/27 01:28:42;;;;;;;1.80;1.70;;;1.70;98.20;;;;;;5004505;28;20477;-71
2022/02/27 01:31:09;;;;;;;1.70;1.57;;;1.70;98.20;;;;;;5001665;28;21007;-72
2022/02/27 01:33:37;;;;;;;1.70;1.50;;;1.70;98.20;;;;;;5039397;23;21071;-73
2022/02/27 01:36:05;;;;;;;1.80;1.70;;;1.70;98.20;;;;;;5027071;28;20538;-73
2022/02/27 01:38:32;;;;;;;1.70;1.60;;;1.60;98.20;;;;;;5027349;28;20456;-74
2022/02/27 01:40:59;;;;;;;1.67;1.50;;;1.60;98.20;;;;;;5009249;28;20467;-73
2022/02/27 01:43:25;;;;;;;1.70;1.50;;;1.70;98.20;;;;;;5011228;28;20795;-73
2022/02/27 01:45:52;;;;;;;1.70;1.50;;;1.60;98.20;;;;;;4999314;28;20963;-74
2022/02/27 01:48:19;;;;;;;1.70;1.60;;;1.60;98.20;;;;;;4999956;28;20468;-75
2022/02/27 01:50:47;;;;;;;1.67;1.50;;;1.60;98.20;;;;;;5009470;28;20480;-73
2022/02/27 01:53:14;;;;;;;1.70;1.60;;;1.60;98.20;;;;;;5002905;28;21294;-74
2022/02/27 01:55:41;;;;;;;1.63;1.50;;;1.50;98.20;;;;;;5003868;28;20949;-74
2022/02/27 01:58:08;;;;;;;1.70;1.50;;;1.50;98.20;;;;;;5009018;28;20522;-73
2022/02/27 02:00:35;;;;;;;1.70;1.60;;;1.50;98.20;;;;;;5007707;28;20468;-73
2022/02/27 02:03:01;;;;;;;1.70;1.60;;;1.50;98.20;;;;;;5008806;28;20484;-75
2022/02/27 02:05:28;;;;;;;1.70;1.40;;;1.40;98.20;;;;;;5008099;28;20480;-73
2022/02/27 02:07:57;;;;;;;1.60;1.43;;;1.40;98.20;;;;;;5007919;28;20975;-74
2022/02/27 02:10:23;;;;;;;1.60;1.50;;;1.50;98.20;;;;;;5007126;28;20475;-73
2022/02/27 02:12:50;;;;;;;1.70;1.60;;;1.50;98.20;;;;;;5008627;28;20491;-74
2022/02/27 02:15:17;;;;;;;1.63;1.50;;;1.50;98.20;;;;;;5009077;28;20460;-74
2022/02/27 02:17:44;;;;;;;1.77;1.67;;;1.50;98.20;;;;;;5008461;28;20546;-75
2022/02/27 02:20:16;;;;;;;1.67;1.57;;;1.50;98.20;;;;;;5007054;28;20488;-74
2022/02/27 02:22:43;;;;;;;1.80;1.70;;;1.50;98.20;;;;;;4996906;28;20496;-73
2022/02/27 02:25:09;;;;;;;1.70;1.60;;;1.50;98.20;;;;;;5007794;28;20491;-72
2022/02/27 02:27:38;;;;;;;1.87;1.77;;;1.40;98.20;;;;;;5008204;28;20475;-74
2022/02/27 02:30:09;;;;;;;1.67;1.57;;;1.50;98.20;;;;;;5008148;28;20464;-75
2022/02/27 02:32:47;;;;;;;1.63;1.50;;;1.50;98.20;;;;;;5007968;28;20499;-74
2022/02/27 02:35:15;;;;;;;1.70;1.60;;;1.50;98.20;;;;;;5002264;28;20866;-73
2022/02/27 02:37:42;;;;;;;1.67;1.57;;;1.60;98.20;;;;;;4994583;28;20520;-72
2022/02/27 02:40:09;;;;;;;1.70;1.60;;;1.60;98.20;;;;;;5005639;28;20530;-74
2022/02/27 02:42:39;;;;;;;1.73;1.63;;;1.60;98.20;;;;;;4991744;28;20469;-74
2022/02/27 02:45:07;;;;;;;1.70;1.60;;;1.60;98.20;;;;;;4995261;28;20508;-73
2022/02/27 02:47:34;;;;;;;1.70;1.60;;;1.60;98.20;;;;;;5001803;28;20937;-73
2022/02/27 02:50:01;;;;;;;1.63;1.43;;;1.60;98.20;;;;;;5007010;28;20452;-75
2022/02/27 02:52:29;;;;;;;1.60;1.50;;;1.60;98.20;;;;;;5007722;28;20470;-74
2022/02/27 02:54:56;;;;;;;1.63;1.47;;;1.50;98.20;;;;;;5007820;28;20973;-73
2022/02/27 02:57:22;;;;;;;1.67;1.47;;;1.50;98.20;;;;;;5007360;28;20456;-73
2022/02/27 02:59:50;;;;;;;1.63;1.50;;;1.40;98.20;;;;;;5007252;28;20979;-73
2022/02/27 03:02:17;;;;;;;1.70;1.57;;;1.40;98.20;;;;;;5007241;28;20518;-73
2022/02/27 03:04:44;;;;;;;1.70;1.60;;;1.40;98.20;;;;;;5007485;28;20491;-72
2022/02/27 03:07:10;;;;;;;1.63;1.50;;;1.30;98.20;;;;;;5007140;28;20493;-76
2022/02/27 03:09:38;;;;;;;1.70;1.60;;;1.30;98.20;;;;;;5007662;28;20474;-75
2022/02/27 03:12:06;;;;;;;1.67;1.50;;;1.20;98.20;;;;;;5007222;28;21034;-72
2022/02/27 03:14:33;;;;;;;1.70;1.60;;;1.10;98.20;;;;;;5004013;28;20476;-74
2022/02/27 03:17:00;;;;;;;1.70;1.60;;;1.00;98.20;;;;;;4996959;28;20495;-74
2022/02/27 03:19:26;;;;;;;1.70;1.60;;;0.90;98.20;;;;;;5005821;28;20464;-73
2022/02/27 03:21:53;;;;;;;1.63;1.50;;;0.90;98.20;;;;;;4997785;28;20480;-74
2022/02/27 03:24:20;;;;;;;1.67;1.50;;;0.80;98.20;;;;;;5006691;28;20488;-74
2022/02/27 03:26:48;;;;;;;1.63;1.50;;;0.80;98.20;;;;;;5007368;28;20464;-74
2022/02/27 03:29:14;;;;;;;1.70;1.60;;;0.70;98.20;;;;;;5007459;28;20588;-73
2022/02/27 03:31:41;;;;;;;1.63;1.50;;;0.70;98.20;;;;;;5006626;28;20456;-75
2022/02/27 03:34:08;;;;;;;1.63;1.50;;;0.70;98.20;;;;;;5007259;28;20491;-75
2022/02/27 03:36:35;;;;;;;1.70;1.53;;;0.70;98.20;;;;;;5007807;28;20460;-73
2022/02/27 03:39:02;;;;;;;1.70;1.60;;;0.60;98.20;;;;;;5006997;28;20468;-72
2022/02/27 03:41:28;;;;;;;1.77;1.67;;;0.70;98.20;;;;;;5006185;28;20475;-72
2022/02/27 03:43:56;;;;;;;1.93;1.83;;;0.70;98.20;;;;;;5006944;28;20483;-74
2022/02/27 03:46:23;;;;;;;1.80;1.70;;;0.70;98.20;;;;;;5006977;28;20496;-75
2022/02/27 03:48:50;;;;;;;1.70;1.60;;;0.70;98.20;;;;;;5007538;28;21080;-76
2022/02/27 03:51:17;;;;;;;1.70;1.60;;;0.70;98.20;;;;;;5009752;28;20456;-73
2022/02/27 03:53:43;;;;;;;1.70;1.60;;;0.80;98.20;;;;;;5011394;28;20988;-74
2022/02/27 03:56:10;;;;;;;1.63;1.50;;;0.80;98.20;;;;;;5000301;28;21203;-73
2022/02/27 03:58:37;;;;;;;1.63;1.50;;;0.80;98.20;;;;;;5009551;28;20975;-75
2022/02/27 04:01:05;;;;;;;1.70;1.60;;;0.70;98.20;;;;;;5009481;28;20474;-73
2022/02/27 04:03:32;;;;;;;1.60;1.50;;;0.70;98.20;;;;;;5004489;28;20476;-73
2022/02/27 04:05:58;;;;;;;1.93;1.83;;;0.70;98.20;;;;;;5010633;28;21070;-73
2022/02/27 04:08:25;;;;;;;1.63;1.50;;;0.60;98.20;;;;;;5004398;28;20466;-75
2022/02/27 04:10:52;;;;;;;1.70;1.60;;;0.60;98.20;;;;;;4994368;28;20460;-72
2022/02/27 04:13:19;;;;;;;1.70;1.60;;;0.60;98.20;;;;;;5002938;28;20926;-74
2022/02/27 04:15:45;;;;;;;1.77;1.67;;;0.50;98.20;;;;;;5010800;28;20464;-73
2022/02/27 04:18:14;;;;;;;2.00;1.90;;;0.40;98.20;;;;;;5010183;28;20467;-76
2022/02/27 04:20:40;;;;;;;1.80;1.70;;;0.40;98.20;;;;;;5003360;28;20987;-72
2022/02/27 04:23:07;;;;;;;1.70;1.60;;;0.30;98.20;;;;;;5009024;28;20484;-72
2022/02/27 04:25:34;;;;;;;1.80;1.70;;;0.30;98.20;;;;;;5010473;28;20499;-74
2022/02/27 04:28:01;;;;;;;1.90;1.80;;;0.30;98.20;;;;;;5009281;28;20468;-75
2022/02/27 04:30:27;;;;;;;1.70;1.60;;;0.20;98.20;;;;;;5009236;28;20472;-73
2022/02/27 04:32:54;;;;;;;1.80;1.70;;;0.20;98.20;;;;;;5010467;28;20510;-73
2022/02/27 04:35:22;;;;;;;1.80;1.70;;;0.20;98.20;;;;;;5010138;28;20456;-73
2022/02/27 04:37:49;;;;;;;1.70;1.60;;;0.10;98.20;;;;;;5009997;28;20464;-73
2022/02/27 04:40:16;;;;;;;1.63;1.50;;;0.00;98.20;;;;;;5009780;28;20468;-76
2022/02/27 04:42:43;;;;;;;1.83;1.73;;;0.00;98.20;;;;;;5008376;28;20566;-74
2022/02/27 04:45:11;;;;;;;1.90;1.80;;;0.00;98.20;;;;;;5009947;28;20492;-73
2022/02/27 04:47:37;;;;;;;1.80;1.70;;;0.00;98.20;;;;;;4999006;28;20495;-74
2022/02/27 04:50:05;;;;;;;1.70;1.60;;;-0.10;98.20;;;;;;5008557;28;20514;-73
2022/02/27 04:52:33;;;;;;;1.97;1.87;;;-0.10;98.20;;;;;;5009654;28;20782;-73
2022/02/27 04:55:00;;;;;;;1.80;1.70;;;-0.10;98.20;;;;;;5009894;28;20468;-73
2022/02/27 04:57:27;;;;;;;1.90;1.80;;;-0.20;98.20;;;;;;5009097;28;20839;-74
2022/02/27 04:59:53;;;;;;;1.70;1.60;;;-0.20;98.20;;;;;;5009348;28;20468;-76
2022/02/27 05:02:20;;;;;;;1.70;1.60;;;-0.20;98.20;;;;;;4998578;28;20496;-74
2022/02/27 05:04:47;;;;;;;1.70;1.60;;;-0.30;98.20;;;;;;5009280;28;20468;-74
2022/02/27 05:07:14;;;;;;;1.80;1.70;;;-0.30;98.20;;;;;;5004378;28;20990;-74
2022/02/27 05:09:42;;;;;;;1.80;1.70;;;-0.30;98.20;;;;;;5008588;28;20816;-74
2022/02/27 05:12:09;;;;;;;1.70;1.60;;;-0.40;98.20;;;;;;4997794;28;20483;-75
2022/02/27 05:14:35;;;;;;;1.80;1.70;;;-0.40;98.20;;;;;;5009004;28;20476;-75
2022/02/27 05:17:02;;;;;;;1.70;1.60;;;-0.40;98.20;;;;;;5009075;28;20468;-73
2022/02/27 05:19:29;;;;;;;1.70;1.60;;;-0.40;98.20;;;;;;5008222;28;20468;-73
2022/02/27 05:21:56;;;;;;;1.80;1.70;;;-0.40;98.20;;;;;;5008784;28;20460;-73
2022/02/27 05:24:23;;;;;;;1.70;1.60;;;-0.50;98.20;;;;;;5008605;28;20479;-74
2022/02/27 05:26:51;;;;;;;1.70;1.60;;;-0.50;98.20;;;;;;5009189;28;20494;-76
2022/02/27 05:29:18;;;;;;;1.70;1.60;;;-0.50;98.20;;;;;;5008880;28;20469;-75
2022/02/27 05:31:45;;;;;;;1.70;1.60;;;-0.50;98.20;;;;;;5007456;28;20460;-74
2022/02/27 05:34:11;;;;;;;1.70;1.60;;;-0.50;98.20;;;;;;5008566;28;21019;-74
2022/02/27 05:36:38;;;;;;;1.70;1.60;;;-0.50;98.20;;;;;;4998218;28;20495;-75
2022/02/27 05:39:06;;;;;;;1.90;1.80;;;-0.60;98.20;;;;;;5007406;28;20464;-75
2022/02/27 05:41:33;;;;;;;1.70;1.60;;;-0.60;98.20;;;;;;5007250;28;20471;-75
2022/02/27 05:44:01;;;;;;;1.90;1.80;;;-0.60;98.20;;;;;;5009219;28;20488;-74
2022/02/27 05:46:28;;;;;;;1.70;1.60;;;-0.60;98.20;;;;;;5009067;28;21021;-74
2022/02/27 05:48:55;;;;;;;1.93;1.83;;;-0.60;98.20;;;;;;5008907;28;20464;-74
2022/02/27 05:51:22;;;;;;;1.80;1.70;;;-0.70;98.20;;;;;;5006594;28;20471;-74
2022/02/27 05:53:48;;;;;;;1.80;1.70;;;-0.70;98.20;;;;;;5009043;28;20487;-74
2022/02/27 05:56:15;;;;;;;1.80;1.70;;;-0.70;98.20;;;;;;5007660;28;20464;-75
2022/02/27 05:58:42;;;;;;;1.80;1.70;;;-0.70;98.20;;;;;;5008426;28;20468;-73
2022/02/27 06:01:11;;;;;;;2.03;1.93;;;-0.70;98.20;;;;;;5007534;28;20475;-75
2022/02/27 06:03:38;;;;;;;1.70;1.60;;;-0.70;98.20;;;;;;5008012;28;20495;-73
2022/02/27 06:06:05;;;;;;;1.90;1.80;;;-0.70;98.20;;;;;;5008516;28;20488;-74
2022/02/27 06:08:31;;;;;;;1.93;1.83;;;-0.70;98.20;;;;;;5008905;28;20471;-75
2022/02/27 06:10:58;;;;;;;1.80;1.70;;;-0.70;98.20;;;;;;5007471;28;20982;-76
2022/02/27 06:13:25;;;;;;;1.80;1.70;;;-0.80;98.20;;;;;;5008983;28;20491;-74
2022/02/27 06:15:52;;;;;;;1.90;1.80;;;-0.80;98.20;;;;;;4999539;28;20463;-75
2022/02/27 06:18:20;;;;;;;1.80;1.70;;;-0.80;98.20;;;;;;5005490;28;20499;-74
2022/02/27 06:20:47;;;;;;;1.80;1.70;;;-0.80;98.20;;;;;;4998400;28;20467;-76
2022/02/27 06:23:14;;;;;;;1.80;1.70;;;-0.80;98.20;;;;;;4997059;28;20491;-74
2022/02/27 06:25:41;;;;;;;1.80;1.70;;;-0.80;98.20;;;;;;5008234;28;20880;-78
2022/02/27 06:28:07;;;;;;;1.80;1.70;;;-0.80;98.20;;;;;;5008350;28;20471;-74
2022/02/27 06:30:34;;;;;;;2.00;1.90;;;-0.80;98.20;;;;;;5007268;28;20472;-76
2022/02/27 06:33:01;;;;;;;1.93;1.83;;;-0.80;98.20;;;;;;4995996;28;20516;-74
2022/02/27 06:35:29;;;;;;;1.80;1.70;;;-0.80;98.20;;;;;;5008115;28;20522;-76
2022/02/27 06:37:56;;;;;;;1.70;1.60;;;-0.80;98.20;;;;;;5007975;28;20467;-73
2022/02/27 06:40:23;;;;;;;1.80;1.70;;;-0.80;98.20;;;;;;5007890;28;20540;-74
2022/02/27 06:42:50;;;;;;;1.83;1.73;;;-0.80;98.20;;;;;;5008240;28;20480;-73
2022/02/27 06:45:18;;;;;;;1.80;1.70;;;-0.80;98.20;;;;;;5008384;28;20467;-74
2022/02/27 06:47:45;;;;;;;1.80;1.70;;;-0.70;98.20;;;;;;5007606;28;20999;-74
2022/02/27 06:50:13;;;;;;;1.80;1.70;;;-0.60;98.20;;;;;;5005703;28;20456;-74
2022/02/27 06:52:41;;;;;;;1.80;1.70;;;-0.40;98.20;;;;;;5006599;28;20476;-74
2022/02/27 06:55:09;;;;;;;1.90;1.80;;;-0.20;98.20;;;;;;5008624;28;20463;-74
2022/02/27 06:57:36;;;;;;;1.83;1.73;;;0.00;98.20;;;;;;5003234;28;20467;-77
2022/02/27 07:00:04;;;;;;;1.90;1.80;;;0.10;98.20;;;;;;5005360;28;20465;-72
2022/02/27 07:02:30;;;;;;;1.70;1.60;;;0.30;98.20;;;;;;5005048;28;20920;-71
2022/02/27 07:04:57;;;;;;;1.70;1.60;;;0.50;98.20;;;;;;5008660;28;20487;-71
2022/02/27 07:07:24;;;;;;;1.90;1.80;;;0.70;98.20;;;;;;4996585;28;20492;-71
2022/02/27 07:09:52;;;;;;;1.67;1.57;;;0.90;98.20;;;;;;5006702;28;20468;-71
2022/02/27 07:12:19;;;;;;;1.80;1.70;;;1.10;98.20;;;;;;5006748;28;20949;-71
2022/02/27 07:14:46;;;;;;;1.80;1.70;;;1.20;98.20;;;;;;5007204;28;20468;-70
2022/02/27 07:17:12;;;;;;;1.70;1.60;;;1.40;98.20;;;;;;5007460;28;20500;-71
2022/02/27 07:19:39;;;;;;;1.87;1.77;;;1.60;98.20;;;;;;5006606;28;20471;-71
2022/02/27 07:22:06;;;;;;;1.70;1.60;;;1.80;98.20;;;;;;5005952;28;20957;-71
2022/02/27 07:24:33;;;;;;;1.70;1.60;;;2.00;98.20;;;;;;5006294;28;20484;-71
2022/02/27 07:27:01;;;;;;;1.70;1.60;;;2.20;98.20;;;;;;5009978;28;21004;-71
2022/02/27 07:29:28;;;;;;;1.67;1.50;;;2.30;98.20;;;;;;5009931;28;20926;-70
2022/02/27 07:31:55;;;;;;;1.70;1.60;;;2.50;98.20;;;;;;5009543;28;20464;-71
2022/02/27 07:34:21;;;;;;;1.63;1.50;;;2.60;98.20;;;;;;5008362;28;20499;-70
2022/02/27 07:36:51;;;;;;;1.70;1.60;;;2.80;98.20;;;;;;5043318;23;20821;-71
2022/02/27 07:39:17;;;;;;;1.70;1.50;;;2.90;98.20;;;;;;5030905;28;20469;-71
2022/02/27 07:41:44;;;;;;;1.70;1.50;;;3.10;98.20;;;;;;5029366;28;20466;-70
2022/02/27 07:44:12;;;;;;;1.70;1.60;;;3.20;98.20;;;;;;5029133;28;20466;-72
2022/02/27 07:46:39;;;;;;;1.63;1.50;;;3.30;98.20;;;;;;5022138;28;20489;-71
2022/02/27 07:49:06;;;;;;;1.67;1.50;;;3.50;98.20;;;;;;5012434;28;20470;-74
2022/02/27 07:51:33;;;;;;;1.70;1.60;;;3.60;98.20;;;;;;5019615;28;20455;-71
2022/02/27 07:54:00;;;;;;;1.67;1.40;;;3.70;98.20;;;;;;5012604;28;20812;-73
2022/02/27 07:56:27;;;;;;;1.70;1.53;;;3.90;98.20;;;;;;5009783;28;20484;-72
2022/02/27 07:58:54;;;;;;;1.70;1.50;;;4.00;98.20;;;;;;5010425;28;20528;-72
2022/02/27 08:01:22;;;;;;;1.63;1.40;;;4.10;98.20;;;;;;5008809;28;20470;-73
2022/02/27 08:03:49;;;;;;;1.70;1.50;;;4.20;97.40;;;;;;5010546;28;20457;-74
2022/02/27 08:06:16;;;;;;;1.70;1.50;;;4.30;97.40;;;;;;5009481;28;20490;-73
2022/02/27 08:08:43;;;;;;;1.63;1.40;;;4.50;96.80;;;;;;5011545;28;20472;-73
2022/02/27 08:11:11;;;;;;;1.70;1.53;;;4.50;96.50;;;;;;5009341;28;20937;-72
2022/02/27 08:13:38;;;;;;;1.63;1.40;;;4.70;97.20;;;;;;5011532;28;20471;-71
2022/02/27 08:16:05;;;;;;;1.70;1.40;;;4.80;96.00;;;;;;5010633;28;20571;-71
2022/02/27 08:18:34;;;;;;;1.63;1.40;;;4.90;95.70;;;;;;5013207;28;20868;-71
2022/02/27 08:21:02;;;;;;;1.70;1.40;;;5.00;95.80;;;;;;5017004;28;20471;-71
2022/02/27 08:23:29;;;;;;;1.63;1.30;;;5.20;95.70;;;;;;5008884;28;20538;-72
2022/02/27 08:25:59;;;;;;;1.70;1.50;;;5.30;95.50;;;;;;5009431;28;20495;-72
2022/02/27 08:28:25;;;;;;;1.70;1.60;;;5.40;94.40;;;;;;5009644;28;20500;-71
2022/02/27 08:30:52;;;;;;;1.67;1.40;;;5.50;93.90;;;;;;5007235;28;20468;-72
2022/02/27 08:33:19;;;;;;;1.60;1.30;;;5.60;94.30;;;;;;5007209;28;22046;-72
2022/02/27 08:35:47;;;;;;;1.70;1.40;;;5.70;93.20;;;;;;5005411;28;20488;-73
2022/02/27 08:38:14;;;;;;;1.60;1.30;;;5.80;93.60;;;;;;5007404;28;20469;-71
2022/02/27 08:40:41;;;;;;;1.70;1.60;;;5.90;92.40;;;;;;5004594;28;20473;-71
2022/02/27 08:43:08;;;;;;;1.70;1.50;;;5.90;92.40;;;;;;5007010;28;20976;-74
2022/02/27 08:45:35;;;;;;;1.60;1.40;;;6.10;93.10;;;;;;5005874;28;20491;-72
2022/02/27 08:48:02;;;;;;;1.63;1.40;;;6.20;91.70;;;;;;5004312;28;20495;-72
2022/02/27 08:50:29;;;;;;;1.60;1.20;;;6.30;91.80;;;;;;5004856;28;21018;-72
2022/02/27 08:52:57;;;;;;;1.60;1.40;;;6.30;91.50;;;;;;4996683;28;20484;-73
2022/02/27 08:55:24;;;;;;;1.60;1.40;;;6.40;91.70;;;;;;5003721;28;20464;-71
2022/02/27 08:57:51;;;;;;;1.60;1.30;;;6.60;90.70;;;;;;5000852;28;20530;-70
2022/02/27 09:00:18;;;;;;;1.60;1.30;;;6.60;90.00;;;;;;5002178;28;20460;-71
2022/02/27 09:02:45;;;;;;;1.60;1.20;;;6.70;90.20;;;;;;5003785;28;20839;-70
2022/02/27 09:05:12;;;;;;;1.60;1.20;;;6.70;89.80;;;;;;5004734;28;20994;-70
2022/02/27 09:07:39;;;;;;;1.60;1.30;;;6.80;90.10;;;;;;4994659;28;20611;-70
2022/02/27 09:10:12;;;;;;;1.60;1.30;;;6.90;89.50;;;;;;5004784;28;20471;-71
2022/02/27 09:12:40;;;;;;;1.60;1.40;;;7.10;89.10;;;;;;5005615;28;20589;-70
2022/02/27 09:15:07;;;;;;;1.60;1.20;;;7.20;89.20;;;;;;5003789;28;20476;-71
2022/02/27 09:17:34;;;;;;;1.60;1.30;;;7.20;88.00;;;;;;5004090;28;20537;-70
2022/02/27 09:20:01;;;;;;;1.60;1.30;;;7.30;88.00;;;;;;5006060;28;20479;-72
2022/02/27 09:22:28;;;;;;;1.60;1.30;;;7.30;87.80;;;;;;5004194;28;20471;-70
2022/02/27 09:24:55;;;;;;;3.77;3.40;;;7.40;87.60;;;;;;5003603;28;20520;-70
2022/02/27 09:27:23;;;;;;;1.60;1.20;;;7.40;86.90;;;;;;5006644;28;20511;-70
2022/02/27 09:29:49;;;;;;;1.60;1.33;;;7.50;86.80;;;;;;5004749;28;20460;-70
2022/02/27 09:32:16;;;;;;;1.60;1.30;;;7.60;86.50;;;;;;5005397;28;20468;-70
2022/02/27 09:34:43;;;;;;;1.60;1.43;;;7.70;86.90;;;;;;5004900;28;20473;-70
2022/02/27 09:37:10;;;;;;;1.60;1.20;;;7.90;86.70;;;;;;5002110;28;20495;-70
2022/02/27 09:39:37;;;;;;;1.60;1.30;;;8.00;85.90;;;;;;5006511;28;20466;-70
2022/02/27 09:42:05;;;;;;;1.60;1.20;;;8.10;85.70;;;;;;4992167;28;20479;-70
2022/02/27 09:44:40;;;;;;;1.57;1.20;;;8.10;83.80;;;;;;5003115;28;20464;-73
2022/02/27 09:47:08;;;;;;;1.60;1.30;;;8.30;85.60;;;;;;5006878;28;20491;-71
2022/02/27 09:49:35;;;;;;;1.60;1.20;;;8.40;83.50;;;;;;5008836;28;20464;-72
2022/02/27 09:52:03;;;;;;;1.60;1.20;;;8.50;83.90;;;;;;4991721;28;20527;-72
2022/02/27 09:54:31;;;;;;;1.73;1.63;;;8.60;83.20;;;;;;4995280;28;20480;-73
2022/02/27 09:56:57;;;;;;;1.60;1.20;;;8.70;82.40;;;;;;5005032;28;20955;-72
2022/02/27 09:59:24;;;;;;;1.60;1.20;;;8.80;82.10;;;;;;5006871;28;20513;-72
2022/02/27 10:02:00;;;;;;;1.60;1.20;;;8.70;82.00;;;;;;5010215;28;20461;-71
2022/02/27 10:04:33;;;;;;;1.60;1.20;;;8.70;81.90;;;;;;4996094;28;20476;-71
2022/02/27 10:07:00;;;;;;;1.60;1.20;;;8.80;81.60;;;;;;5001975;28;21018;-72
2022/02/27 10:09:27;;;;;;;1.57;1.10;;;8.80;81.30;;;;;;5000678;28;20468;-72
2022/02/27 10:11:53;;;;;;;1.60;1.40;;;9.00;81.90;;;;;;4992712;28;20491;-72
2022/02/27 10:14:28;;;;;;;1.60;1.30;;;9.10;81.60;;;;;;4996502;28;20667;-72
2022/02/27 10:17:05;;;;;;;1.57;1.10;;;9.20;80.90;;;;;;5002376;28;20935;-72
2022/02/27 10:19:36;;;;;;;1.60;1.20;;;9.20;80.30;;;;;;5004232;28;20975;-72
2022/02/27 10:22:03;;;;;;;15.10;2.80;;;9.20;80.50;;;;;;4991865;28;20539;-72
2022/02/27 10:24:30;;;;;;;1.57;1.10;;;9.30;80.70;;;;;;5000878;28;20626;-72
2022/02/27 10:26:57;;;;;;;1.60;1.20;;;9.30;79.80;;;;;;4999945;28;20495;-71
2022/02/27 10:29:25;;;;;;;1.60;1.30;;;9.60;80.70;;;;;;5002541;28;20487;-72
2022/02/27 10:31:54;;;;;;;1.60;1.20;;;9.60;78.60;;;;;;4993360;28;20831;-72
2022/02/27 10:34:24;;;;;;;1.57;1.20;;;9.60;78.80;;;;;;5000978;28;20459;-72
2022/02/27 10:37:03;;;;;;;1.60;1.20;;;9.70;78.60;;;;;;5001105;28;20894;-71
2022/02/27 10:39:40;;;;;;;1.60;1.40;;;9.70;77.60;;;;;;5001465;28;20464;-71
2022/02/27 10:42:16;;;;;;;1.53;1.10;;;9.90;78.30;;;;;;5000883;28;20472;-71
2022/02/27 10:44:45;;;;;;;1.60;1.17;;;10.00;77.90;;;;;;5003055;28;20494;-71
2022/02/27 10:47:15;;;;;;;1.57;1.10;;;10.10;77.30;;;;;;5002266;28;20498;-72
2022/02/27 10:49:44;;;;;;;1.53;1.10;;;10.10;77.30;;;;;;4999477;28;20824;-72
2022/02/27 10:52:13;;;;;;;1.60;1.20;;;10.10;75.70;;;;;;4999287;28;20554;-71
2022/02/27 10:54:40;;;;;;;1.60;1.27;;;10.10;75.90;;;;;;5003692;28;20556;-72
2022/02/27 10:57:11;;;;;;;1.60;1.40;;;10.20;76.00;;;;;;5000970;28;20480;-72
2022/02/27 10:59:40;;;;;;;1.50;1.10;;;10.30;75.20;;;;;;4999913;28;20470;-72
2022/02/27 11:02:10;;;;;;;1.60;1.10;;;10.20;72.90;;;;;;5005079;28;20464;-71
2022/02/27 11:04:39;;;;;;;1.60;1.10;;;10.10;73.20;;;;;;5007846;28;20471;-71
2022/02/27 11:07:08;;;;;;;1.60;1.10;;;10.10;73.30;;;;;;4996003;28;20494;-72
2022/02/27 11:09:35;;;;;;;1.53;1.10;;;10.20;72.10;;;;;;5006188;28;21226;-71
2022/02/27 11:12:02;;;;;;;1.60;1.20;;;10.20;71.70;;;;;;4990044;28;20480;-71
2022/02/27 11:14:31;;;;;;;1.57;1.10;;;10.30;72.10;;;;;;5002641;28;20466;-72
2022/02/27 11:16:59;;;;;;;1.53;1.10;;;10.30;72.30;;;;;;4995771;28;20654;-74
2022/02/27 11:19:27;;;;;;;1.53;1.10;;;10.30;71.90;;;;;;5003690;28;20495;-71
2022/02/27 11:21:55;;;;;;;1.57;1.07;;;10.30;70.10;;;;;;5009776;28;20955;-73
2022/02/27 11:24:24;;;;;;;1.60;1.20;;;10.40;70.00;;;;;;5006725;28;20479;-72
2022/02/27 11:26:51;;;;;;;1.53;1.10;;;10.40;70.30;;;;;;5006306;28;20480;-71
2022/02/27 11:29:18;;;;;;;1.60;1.20;;;10.50;69.90;;;;;;5011621;28;20558;-72
2022/02/27 11:31:46;;;;;;;1.57;1.10;;;10.40;69.20;;;;;;5004926;28;20735;-72
2022/02/27 11:34:14;;;;;;;1.57;1.10;;;10.40;69.90;;;;;;5005612;28;20786;-72
2022/02/27 11:36:45;;;;;;;1.57;1.10;;;10.40;68.10;;;;;;5006594;28;20574;-73
2022/02/27 11:41:57;;;;;;;1.53;1.10;;;10.50;70.30;;;;;;4983525;28;20575;-72
2022/02/27 11:44:33;;;;;;;1.50;1.10;;;10.70;69.80;;;;;;5003491;28;20537;-71
2022/02/27 11:47:05;;;;;;;1.60;1.20;;;10.60;69.70;;;;;;4996387;28;20577;-71
2022/02/27 11:49:32;;;;;;;1.57;1.10;;;10.80;71.00;;;;;;5007439;28;20467;-71
2022/02/27 11:52:09;;;;;;;1.60;1.10;;;11.00;71.00;;;;;;5008936;28;20467;-71
2022/02/27 11:54:47;;;;;;;1.60;1.20;;;11.00;70.30;;;;;;5006284;28;20754;-72
2022/02/27 11:57:18;;;;;;;1.60;1.10;;;11.10;69.90;;;;;;5005698;28;20571;-71
2022/02/27 11:59:50;;;;;;;1.60;1.10;;;10.90;69.50;;;;;;5004255;28;20472;-71
2022/02/27 12:02:25;;;;;;;1.53;1.10;;;10.90;70.50;;;;;;4992439;28;20491;-71
2022/02/27 12:04:53;;;;;;;1.50;1.10;;;10.90;70.50;;;;;;5005682;28;20669;-72
2022/02/27 12:07:20;;;;;;;1.60;1.30;;;11.00;70.80;;;;;;5005168;28;20573;-71
2022/02/27 12:10:03;;;;;;;1.53;1.10;;;11.00;70.80;;;;;;5004112;28;20561;-72
2022/02/27 12:12:58;;;;;;;1.57;1.10;;;11.10;70.20;;;;;;5005220;28;20464;-71
2022/02/27 12:15:31;;;;;;;1.53;1.10;;;10.90;70.60;;;;;;5004454;28;20830;-72
2022/02/27 12:18:01;;;;;;;1.53;1.10;;;11.00;71.40;;;;;;5006876;28;20460;-71
2022/02/27 12:20:54;;;;;;;1.60;1.30;;;10.90;70.50;;;;;;5009747;28;20603;-71
2022/02/27 12:23:47;;;;;;;1.53;1.10;;;10.90;71.20;;;;;;5007330;28;20521;-72
2022/02/27 12:26:42;;;;;;;1.53;1.10;;;10.90;70.70;;;;;;5003842;28;20480;-70
2022/02/27 12:29:33;;;;;;;1.50;1.10;;;10.90;70.70;;;;;;5004463;28;20591;-72
2022/02/27 12:32:22;;;;;;;1.53;1.10;;;10.90;71.30;;;;;;5005807;28;20806;-71
2022/02/27 12:34:52;;;;;;;1.50;1.00;;;10.90;72.50;;;;;;4999283;28;20782;-71
2022/02/27 12:37:19;;;;;;;1.53;1.10;;;11.10;71.50;;;;;;5004131;28;20492;-71
2022/02/27 12:39:48;;;;;;;1.50;1.10;;;11.00;71.40;;;;;;5004281;28;20979;-71
2022/02/27 12:42:19;;;;;;;1.53;1.03;;;11.00;71.50;;;;;;5004464;28;20471;-71
2022/02/27 12:44:49;;;;;;;1.50;1.10;;;11.00;72.10;;;;;;5004724;28;20518;-70
2022/02/27 12:47:18;;;;;;;1.50;1.00;;;11.00;71.50;;;;;;5004060;28;20487;-71
2022/02/27 12:52:37;;;;;;;1.57;1.10;;;10.90;71.00;;;;;;5005441;28;20734;-71
2022/02/27 12:55:06;;;;;;;1.60;1.20;;;10.80;71.40;;;;;;5004696;28;20464;-72
2022/02/27 12:57:33;;;;;;;1.77;1.67;;;10.90;71.80;;;;;;5004283;28;20484;-71
2022/02/27 13:00:02;;;;;;;1.53;1.10;;;10.90;71.80;;;;;;5005950;28;20572;-70
2022/02/27 13:02:29;;;;;;;1.50;1.20;;;11.00;71.90;;;;;;5003793;28;20476;-71